sensor_id;sensor_type;location;lat;lon;timestamp;pressure;altitude;pressure_sealevel;temperature;humidity
68366;BME280;55283;51.466;5.478;2023-02-16T00:01:33;102260.47;;;20.55;44.00
68366;BME280;55283;51.466;5.478;2023-02-16T00:03:59;102268.09;;;20.55;43.80
68366;BME280;55283;51.466;5.478;2023-02-16T00:06:26;102264.88;;;20.56;43.94
68366;BME280;55283;51.466;5.478;2023-02-16T00:08:54;102264.50;;;20.54;43.75
68366;BME280;55283;51.466;5.478;2023-02-16T00:11:32;102265.69;;;20.53;43.80
68366;BME280;55283;51.466;5.478;2023-02-16T00:14:18;102263.28;;;20.55;43.78
68366;BME280;55283;51.466;5.478;2023-02-16T00:16:47;102265.69;;;20.53;43.77
68366;BME280;55283;51.466;5.478;2023-02-16T00:21:46;102271.31;;;20.50;43.88
68366;BME280;55283;51.466;5.478;2023-02-16T00:24:12;102268.91;;;20.52;43.74
68366;BME280;55283;51.466;5.478;2023-02-16T00:26:40;102264.09;;;20.52;43.90
68366;BME280;55283;51.466;5.478;2023-02-16T00:29:09;102265.69;;;20.53;43.62
68366;BME280;55283;51.466;5.478;2023-02-16T00:31:35;102262.88;;;20.53;43.62
68366;BME280;55283;51.466;5.478;2023-02-16T00:34:21;102251.31;;;20.48;43.59
68366;BME280;55283;51.466;5.478;2023-02-16T00:36:48;102251.72;;;20.46;43.53
68366;BME280;55283;51.466;5.478;2023-02-16T00:39:13;102248.13;;;20.42;43.66
68366;BME280;55283;51.466;5.478;2023-02-16T00:41:39;102273.72;;;20.51;43.69
68366;BME280;55283;51.466;5.478;2023-02-16T00:44:26;102270.50;;;20.53;43.60
68366;BME280;55283;51.466;5.478;2023-02-16T00:46:53;102259.34;;;20.46;43.51
68366;BME280;55283;51.466;5.478;2023-02-16T00:49:20;102265.69;;;20.53;43.40
68366;BME280;55283;51.466;5.478;2023-02-16T00:51:46;102270.50;;;20.53;43.42
68366;BME280;55283;51.466;5.478;2023-02-16T00:54:12;102251.72;;;20.46;43.84
68366;BME280;55283;51.466;5.478;2023-02-16T00:56:38;102270.09;;;20.51;43.68
68366;BME280;55283;51.466;5.478;2023-02-16T00:59:07;102264.09;;;20.52;43.53
68366;BME280;55283;51.466;5.478;2023-02-16T01:01:34;102255.31;;;20.47;43.50
68366;BME280;55283;51.466;5.478;2023-02-16T01:04:04;102264.09;;;20.52;43.48
68366;BME280;55283;51.466;5.478;2023-02-16T01:06:30;102258.50;;;20.52;43.61
68366;BME280;55283;51.466;5.478;2023-02-16T01:09:17;102254.50;;;20.50;43.43
68366;BME280;55283;51.466;5.478;2023-02-16T01:12:04;102254.53;;;20.43;43.48
68366;BME280;55283;51.466;5.478;2023-02-16T01:14:33;102250.13;;;20.45;43.53
68366;BME280;55283;51.466;5.478;2023-02-16T01:16:59;102254.09;;;20.48;43.56
68366;BME280;55283;51.466;5.478;2023-02-16T01:19:25;102249.72;;;20.47;43.51
68366;BME280;55283;51.466;5.478;2023-02-16T01:21:50;102253.72;;;20.49;43.42
68366;BME280;55283;51.466;5.478;2023-02-16T01:24:16;102247.34;;;20.42;43.61
68366;BME280;55283;51.466;5.478;2023-02-16T01:26:45;102244.09;;;20.47;43.67
68366;BME280;55283;51.466;5.478;2023-02-16T01:29:16;102244.91;;;20.47;43.47
68366;BME280;55283;51.466;5.478;2023-02-16T01:31:42;102241.75;;;20.38;43.38
68366;BME280;55283;51.466;5.478;2023-02-16T01:34:08;102246.94;;;20.43;43.53
68366;BME280;55283;51.466;5.478;2023-02-16T01:36:36;102237.28;;;20.48;43.41
68366;BME280;55283;51.466;5.478;2023-02-16T01:39:03;102236.94;;;20.46;43.41
68366;BME280;55283;51.466;5.478;2023-02-16T01:44:27;102228.91;;;20.44;43.55
68366;BME280;55283;51.466;5.478;2023-02-16T01:47:00;102215.72;;;20.41;43.51
68366;BME280;55283;51.466;5.478;2023-02-16T01:49:29;102214.50;;;20.42;43.49
68366;BME280;55283;51.466;5.478;2023-02-16T01:51:59;102206.94;;;20.43;43.43
68366;BME280;55283;51.466;5.478;2023-02-16T01:54:35;102204.94;;;20.43;43.50
68366;BME280;55283;51.466;5.478;2023-02-16T02:02:16;102191.34;;;20.34;43.48
68366;BME280;55283;51.466;5.478;2023-02-16T02:04:57;102193.34;;;20.38;43.43
68366;BME280;55283;51.466;5.478;2023-02-16T02:07:57;102202.16;;;20.40;43.62
68366;BME280;55283;51.466;5.478;2023-02-16T02:15:43;102196.94;;;20.38;43.54
68366;BME280;55283;51.466;5.478;2023-02-16T02:18:09;102194.94;;;20.39;43.32
68366;BME280;55283;51.466;5.478;2023-02-16T02:20:46;102199.34;;;20.40;43.39
68366;BME280;55283;51.466;5.478;2023-02-16T02:32:11;102183.72;;;20.39;43.39
68366;BME280;55283;51.466;5.478;2023-02-16T02:34:45;102182.53;;;20.32;43.36
68366;BME280;55283;51.466;5.478;2023-02-16T02:37:39;102189.34;;;20.39;43.17
68366;BME280;55283;51.466;5.478;2023-02-16T02:40:11;102191.34;;;20.34;43.33
68366;BME280;55283;51.466;5.478;2023-02-16T02:45:29;102174.13;;;20.32;43.40
68366;BME280;55283;51.466;5.478;2023-02-16T02:47:56;102166.53;;;20.33;43.44
68366;BME280;55283;51.466;5.478;2023-02-16T02:53:28;102166.94;;;20.35;43.47
68366;BME280;55283;51.466;5.478;2023-02-16T02:55:54;102162.16;;;20.32;43.21
68366;BME280;55283;51.466;5.478;2023-02-16T02:58:42;102168.13;;;20.34;43.10
68366;BME280;55283;51.466;5.478;2023-02-16T03:01:27;102142.56;;;20.25;43.52
68366;BME280;55283;51.466;5.478;2023-02-16T03:03:54;102154.97;;;20.31;43.45
68366;BME280;55283;51.466;5.478;2023-02-16T03:06:27;102142.97;;;20.27;43.49
68366;BME280;55283;51.466;5.478;2023-02-16T03:08:58;102139.38;;;20.26;43.19
68366;BME280;55283;51.466;5.478;2023-02-16T03:11:26;102148.94;;;20.32;43.36
68366;BME280;55283;51.466;5.478;2023-02-16T03:14:18;102142.97;;;20.27;43.39
68366;BME280;55283;51.466;5.478;2023-02-16T03:16:47;102143.34;;;20.29;43.35
68366;BME280;55283;51.466;5.478;2023-02-16T03:19:16;102154.97;;;20.31;43.06
68366;BME280;55283;51.466;5.478;2023-02-16T03:22:01;102158.91;;;20.33;43.52
68366;BME280;55283;51.466;5.478;2023-02-16T03:24:45;102132.19;;;20.25;43.40
68366;BME280;55283;51.466;5.478;2023-02-16T03:27:39;102142.16;;;20.30;43.34
68366;BME280;55283;51.466;5.478;2023-02-16T03:30:25;102140.13;;;20.30;43.47
68366;BME280;55283;51.466;5.478;2023-02-16T03:32:51;102147.38;;;20.28;43.33
68366;BME280;55283;51.466;5.478;2023-02-16T03:35:18;102153.78;;;20.28;43.38
68366;BME280;55283;51.466;5.478;2023-02-16T03:37:44;102145.75;;;20.27;43.38
68366;BME280;55283;51.466;5.478;2023-02-16T03:40:12;102142.56;;;20.25;43.26
68366;BME280;55283;51.466;5.478;2023-02-16T03:42:59;102143.75;;;20.31;43.46
68366;BME280;55283;51.466;5.478;2023-02-16T03:45:25;102146.16;;;20.29;43.28
68366;BME280;55283;51.466;5.478;2023-02-16T03:47:50;102139.34;;;20.30;43.36
68366;BME280;55283;51.466;5.478;2023-02-16T03:50:16;102134.56;;;20.27;43.42
68366;BME280;55283;51.466;5.478;2023-02-16T03:52:41;102138.97;;;20.28;43.24
68366;BME280;55283;51.466;5.478;2023-02-16T03:55:07;102123.00;;;20.21;43.20
68366;BME280;55283;51.466;5.478;2023-02-16T03:57:33;102125.41;;;20.23;43.32
68366;BME280;55283;51.466;5.478;2023-02-16T03:59:58;102134.97;;;20.29;43.25
68366;BME280;55283;51.466;5.478;2023-02-16T04:02:25;102133.34;;;20.31;43.18
68366;BME280;55283;51.466;5.478;2023-02-16T04:04:51;102130.56;;;20.24;43.07
68366;BME280;55283;51.466;5.478;2023-02-16T04:07:16;102146.56;;;20.31;43.23
68366;BME280;55283;51.466;5.478;2023-02-16T04:09:42;102143.34;;;20.32;43.20
68366;BME280;55283;51.466;5.478;2023-02-16T04:12:08;102140.16;;;20.27;43.15
68366;BME280;55283;51.466;5.478;2023-02-16T04:14:52;102143.34;;;20.29;43.08
68366;BME280;55283;51.466;5.478;2023-02-16T04:17:18;102150.19;;;20.28;43.22
68366;BME280;55283;51.466;5.478;2023-02-16T04:19:44;102146.59;;;20.24;43.37
68366;BME280;55283;51.466;5.478;2023-02-16T04:22:09;102149.00;;;20.25;43.45
68366;BME280;55283;51.466;5.478;2023-02-16T04:24:34;102136.19;;;20.24;43.22
68366;BME280;55283;51.466;5.478;2023-02-16T04:27:00;102145.38;;;20.25;43.12
68366;BME280;55283;51.466;5.478;2023-02-16T04:29:25;102145.38;;;20.25;43.31
68366;BME280;55283;51.466;5.478;2023-02-16T04:31:51;102133.78;;;20.23;43.16
68366;BME280;55283;51.466;5.478;2023-02-16T04:34:17;102148.16;;;20.28;42.96
68366;BME280;55283;51.466;5.478;2023-02-16T04:36:42;102148.16;;;20.25;43.24
68366;BME280;55283;51.466;5.478;2023-02-16T04:39:08;102150.19;;;20.28;43.16
68366;BME280;55283;51.466;5.478;2023-02-16T04:41:33;102142.56;;;20.25;43.15
68366;BME280;55283;51.466;5.478;2023-02-16T04:43:59;102144.19;;;20.26;43.15
68366;BME280;55283;51.466;5.478;2023-02-16T04:46:24;102145.75;;;20.27;43.10
68366;BME280;55283;51.466;5.478;2023-02-16T04:48:50;102150.56;;;20.26;43.09
68366;BME280;55283;51.466;5.478;2023-02-16T04:51:15;102151.38;;;20.27;43.25
68366;BME280;55283;51.466;5.478;2023-02-16T04:53:40;102137.00;;;20.21;42.92
68366;BME280;55283;51.466;5.478;2023-02-16T04:56:10;102146.97;;;20.26;43.15
68366;BME280;55283;51.466;5.478;2023-02-16T04:58:35;102138.19;;;20.24;43.01
68366;BME280;55283;51.466;5.478;2023-02-16T05:01:01;102138.56;;;20.26;43.05
68366;BME280;55283;51.466;5.478;2023-02-16T05:03:26;102131.44;;;20.14;43.18
68366;BME280;55283;51.466;5.478;2023-02-16T05:05:52;102151.00;;;20.21;43.07
68366;BME280;55283;51.466;5.478;2023-02-16T05:08:17;102143.38;;;20.22;43.39
68366;BME280;55283;51.466;5.478;2023-02-16T05:10:42;102154.59;;;20.22;43.25
68366;BME280;55283;51.466;5.478;2023-02-16T05:13:09;102151.00;;;20.21;43.39
68366;BME280;55283;51.466;5.478;2023-02-16T05:15:53;102142.59;;;20.21;43.04
68366;BME280;55283;51.466;5.478;2023-02-16T05:18:18;102137.78;;;20.22;43.04
68366;BME280;55283;51.466;5.478;2023-02-16T05:20:44;102143.38;;;20.22;43.32
68366;BME280;55283;51.466;5.478;2023-02-16T05:23:28;102134.19;;;20.21;42.96
68366;BME280;55283;51.466;5.478;2023-02-16T05:25:53;102141.00;;;20.20;43.02
68366;BME280;55283;51.466;5.478;2023-02-16T05:28:18;102129.03;;;20.20;43.15
68366;BME280;55283;51.466;5.478;2023-02-16T05:30:44;102125.44;;;20.19;43.10
68366;BME280;55283;51.466;5.478;2023-02-16T05:33:09;102125.44;;;20.16;43.01
68366;BME280;55283;51.466;5.478;2023-02-16T05:35:34;102135.81;;;20.19;42.90
68366;BME280;55283;51.466;5.478;2023-02-16T05:38:00;102154.59;;;20.22;43.24
68366;BME280;55283;51.466;5.478;2023-02-16T05:40:25;102145.81;;;20.20;43.22
68366;BME280;55283;51.466;5.478;2023-02-16T05:42:54;102123.00;;;20.21;43.07
68366;BME280;55283;51.466;5.478;2023-02-16T05:45:19;102114.59;;;20.21;42.99
68366;BME280;55283;51.466;5.478;2023-02-16T05:47:45;102120.63;;;20.20;43.16
68366;BME280;55283;51.466;5.478;2023-02-16T05:50:10;102128.59;;;20.21;43.08
68366;BME280;55283;51.466;5.478;2023-02-16T05:52:36;102117.03;;;20.16;42.87
68366;BME280;55283;51.466;5.478;2023-02-16T05:55:02;102115.03;;;20.20;42.85
68366;BME280;55283;51.466;5.478;2023-02-16T05:57:27;102126.59;;;20.22;43.07
68366;BME280;55283;51.466;5.478;2023-02-16T05:59:53;102142.59;;;20.21;43.12
68366;BME280;55283;51.466;5.478;2023-02-16T06:02:18;102140.59;;;20.22;42.93
68366;BME280;55283;51.466;5.478;2023-02-16T06:04:43;102125.78;;;20.21;43.02
68366;BME280;55283;51.466;5.478;2023-02-16T06:07:09;102134.19;;;20.21;42.99
68366;BME280;55283;51.466;5.478;2023-02-16T06:09:34;102127.00;;;20.20;42.95
68366;BME280;55283;51.466;5.478;2023-02-16T06:12:00;102120.63;;;20.20;42.86
68366;BME280;55283;51.466;5.478;2023-02-16T06:14:25;102121.81;;;20.19;42.88
68366;BME280;55283;51.466;5.478;2023-02-16T06:16:50;102119.44;;;20.17;43.19
68366;BME280;55283;51.466;5.478;2023-02-16T06:19:17;102116.25;;;20.11;43.03
68366;BME280;55283;51.466;5.478;2023-02-16T06:21:43;102123.03;;;20.18;43.02
68366;BME280;55283;51.466;5.478;2023-02-16T06:24:10;102136.19;;;20.21;43.13
68366;BME280;55283;51.466;5.478;2023-02-16T06:26:36;102120.19;;;20.21;43.14
68366;BME280;55283;51.466;5.478;2023-02-16T06:29:02;102112.22;;;20.20;43.06
68366;BME280;55283;51.466;5.478;2023-02-16T06:31:28;102107.41;;;20.20;43.17
68366;BME280;55283;51.466;5.478;2023-02-16T06:33:54;102115.06;;;20.09;43.27
68366;BME280;55283;51.466;5.478;2023-02-16T06:36:21;102125.44;;;20.19;43.63
68366;BME280;55283;51.466;5.478;2023-02-16T06:38:47;102127.41;;;20.19;43.55
68366;BME280;55283;51.466;5.478;2023-02-16T06:41:12;102133.44;;;20.10;43.68
68366;BME280;55283;51.466;5.478;2023-02-16T06:43:58;102142.66;;;20.10;44.09
68366;BME280;55283;51.466;5.478;2023-02-16T06:46:24;102131.47;;;20.10;44.35
68366;BME280;55283;51.466;5.478;2023-02-16T06:48:49;102135.47;;;20.06;44.14
68366;BME280;55283;51.466;5.478;2023-02-16T06:51:18;102129.88;;;20.06;44.36
68366;BME280;55283;51.466;5.478;2023-02-16T06:53:44;102143.84;;;20.17;44.59
68366;BME280;55283;51.466;5.478;2023-02-16T06:56:09;102146.19;;;20.25;44.44
68366;BME280;55283;51.466;5.478;2023-02-16T06:58:35;102152.56;;;20.29;44.22
68366;BME280;55283;51.466;5.478;2023-02-16T07:01:00;102164.94;;;20.32;44.01
68366;BME280;55283;51.466;5.478;2023-02-16T07:03:25;102169.31;;;20.33;44.13
68366;BME280;55283;51.466;5.478;2023-02-16T07:05:51;102156.13;;;20.33;44.19
68366;BME280;55283;51.466;5.478;2023-02-16T07:08:17;102148.13;;;20.35;44.85
68366;BME280;55283;51.466;5.478;2023-02-16T07:10:44;102137.72;;;20.32;44.96
68366;BME280;55283;51.466;5.478;2023-02-16T07:13:10;102150.13;;;20.39;45.46
68366;BME280;55283;51.466;5.478;2023-02-16T07:15:36;102146.94;;;20.29;44.87
68366;BME280;55283;51.466;5.478;2023-02-16T07:18:01;102151.34;;;20.34;44.39
68366;BME280;55283;51.466;5.478;2023-02-16T07:20:27;102170.94;;;20.34;44.38
68366;BME280;55283;51.466;5.478;2023-02-16T07:22:53;102168.94;;;20.34;45.00
68366;BME280;55283;51.466;5.478;2023-02-16T07:25:18;102164.56;;;20.37;45.23
68366;BME280;55283;51.466;5.478;2023-02-16T07:27:44;102156.19;;;20.23;41.82
68366;BME280;55283;51.466;5.478;2023-02-16T07:30:10;102156.66;;;20.10;41.34
68366;BME280;55283;51.466;5.478;2023-02-16T07:32:36;102173.91;;;19.98;40.15
68366;BME280;55283;51.466;5.478;2023-02-16T07:35:03;102168.28;;;19.98;42.32
68366;BME280;55283;51.466;5.478;2023-02-16T07:37:28;102174.28;;;20.00;43.23
68366;BME280;55283;51.466;5.478;2023-02-16T07:39:54;102167.16;;;19.88;42.57
68366;BME280;55283;51.466;5.478;2023-02-16T07:42:20;102167.97;;;19.85;40.44
68366;BME280;55283;51.466;5.478;2023-02-16T07:44:46;102148.41;;;19.71;38.10
68366;BME280;55283;51.466;5.478;2023-02-16T07:47:11;102162.03;;;19.65;38.52
68366;BME280;55283;51.466;5.478;2023-02-16T07:49:38;102168.44;;;19.59;39.57
68366;BME280;55283;51.466;5.478;2023-02-16T07:52:04;102177.22;;;19.64;39.88
68366;BME280;55283;51.466;5.478;2023-02-16T07:54:30;102168.03;;;19.67;39.71
68366;BME280;55283;51.466;5.478;2023-02-16T07:56:56;102166.00;;;19.68;40.80
68366;BME280;55283;51.466;5.478;2023-02-16T07:59:21;102168.81;;;19.68;41.53
68366;BME280;55283;51.466;5.478;2023-02-16T08:01:47;102164.00;;;19.72;41.44
68366;BME280;55283;51.466;5.478;2023-02-16T08:04:12;102162.78;;;19.77;41.69
68366;BME280;55283;51.466;5.478;2023-02-16T08:06:38;102176.78;;;19.77;42.03
68366;BME280;55283;51.466;5.478;2023-02-16T08:09:04;102171.59;;;19.79;41.91
68366;BME280;55283;51.466;5.478;2023-02-16T08:11:29;102173.16;;;19.80;41.95
68366;BME280;55283;51.466;5.478;2023-02-16T08:13:54;102169.16;;;19.81;42.28
68366;BME280;55283;51.466;5.478;2023-02-16T08:16:22;102176.31;;;19.93;42.22
68366;BME280;55283;51.466;5.478;2023-02-16T08:18:49;102154.81;;;19.79;42.18
68366;BME280;55283;51.466;5.478;2023-02-16T08:21:23;102163.13;;;19.89;41.89
68366;BME280;55283;51.466;5.478;2023-02-16T08:24:01;102161.13;;;19.94;42.03
68366;BME280;55283;51.466;5.478;2023-02-16T08:26:29;102169.50;;;19.97;42.05
68366;BME280;55283;51.466;5.478;2023-02-16T08:28:57;102175.09;;;20.01;41.72
68366;BME280;55283;51.466;5.478;2023-02-16T08:31:25;102176.69;;;20.02;42.35
68366;BME280;55283;51.466;5.478;2023-02-16T08:33:53;102172.34;;;19.86;42.27
68366;BME280;55283;51.466;5.478;2023-02-16T08:36:24;102186.72;;;19.92;42.49
68366;BME280;55283;51.466;5.478;2023-02-16T08:38:52;102193.09;;;20.00;42.20
68366;BME280;55283;51.466;5.478;2023-02-16T08:41:19;102176.31;;;19.96;42.11
68366;BME280;55283;51.466;5.478;2023-02-16T08:43:46;102184.72;;;19.96;42.42
68366;BME280;55283;51.466;5.478;2023-02-16T08:46:12;102191.06;;;20.04;42.49
68366;BME280;55283;51.466;5.478;2023-02-16T08:48:38;102193.06;;;20.07;42.34
68366;BME280;55283;51.466;5.478;2023-02-16T08:51:05;102195.44;;;20.12;42.42
68366;BME280;55283;51.466;5.478;2023-02-16T08:53:34;102203.06;;;20.08;42.63
68366;BME280;55283;51.466;5.478;2023-02-16T08:56:02;102174.72;;;19.99;42.64
68366;BME280;55283;51.466;5.478;2023-02-16T08:58:29;102189.84;;;20.08;42.44
68366;BME280;55283;51.466;5.478;2023-02-16T09:00:55;102200.25;;;20.04;43.00
68366;BME280;55283;51.466;5.478;2023-02-16T09:03:21;102185.53;;;19.93;43.00
68366;BME280;55283;51.466;5.478;2023-02-16T09:05:48;102204.25;;;20.10;42.93
68366;BME280;55283;51.466;5.478;2023-02-16T09:08:15;102221.44;;;20.09;42.99
68366;BME280;55283;51.466;5.478;2023-02-16T09:10:41;102211.88;;;20.03;43.38
68366;BME280;55283;51.466;5.478;2023-02-16T09:13:07;102217.47;;;20.03;43.07
68366;BME280;55283;51.466;5.478;2023-02-16T09:15:39;102228.25;;;20.04;43.08
68366;BME280;55283;51.466;5.478;2023-02-16T09:18:06;102225.09;;;19.99;43.20
68366;BME280;55283;51.466;5.478;2023-02-16T09:20:36;102228.66;;;20.03;43.23
68366;BME280;55283;51.466;5.478;2023-02-16T09:23:01;102229.06;;;20.05;43.21
68366;BME280;55283;51.466;5.478;2023-02-16T09:25:27;102219.88;;;20.08;43.02
68366;BME280;55283;51.466;5.478;2023-02-16T09:27:52;102221.84;;;20.04;43.13
68366;BME280;55283;51.466;5.478;2023-02-16T09:30:17;102209.09;;;19.99;43.17
68366;BME280;55283;51.466;5.478;2023-02-16T09:32:43;102226.66;;;20.03;43.03
68366;BME280;55283;51.466;5.478;2023-02-16T09:35:09;102229.50;;;19.96;40.06
68366;BME280;55283;51.466;5.478;2023-02-16T09:37:35;102221.53;;;19.87;40.22
68366;BME280;55283;51.466;5.478;2023-02-16T09:40:00;102216.72;;;19.81;41.07
68366;BME280;55283;51.466;5.478;2023-02-16T09:45:12;102204.75;;;19.80;41.38
68366;BME280;55283;51.466;5.478;2023-02-16T09:47:43;102213.53;;;19.86;41.69
68366;BME280;55283;51.466;5.478;2023-02-16T09:50:22;102216.72;;;19.88;41.66
68366;BME280;55283;51.466;5.478;2023-02-16T09:52:57;102201.94;;;19.84;41.74
68366;BME280;55283;51.466;5.478;2023-02-16T09:55:29;102197.94;;;19.85;41.53
68366;BME280;55283;51.466;5.478;2023-02-16T09:58:11;102210.34;;;19.87;41.85
68366;BME280;55283;51.466;5.478;2023-02-16T10:00:43;102219.09;;;19.89;41.81
68366;BME280;55283;51.466;5.478;2023-02-16T10:03:43;102208.28;;;19.95;41.91
68366;BME280;55283;51.466;5.478;2023-02-16T10:08:54;102209.91;;;19.96;41.88
68366;BME280;55283;51.466;5.478;2023-02-16T10:11:26;102211.50;;;19.97;41.60
68366;BME280;55283;51.466;5.478;2023-02-16T10:14:17;102205.50;;;19.95;41.57
68366;BME280;55283;51.466;5.478;2023-02-16T10:19:26;102220.31;;;19.88;42.13
68366;BME280;55283;51.466;5.478;2023-02-16T10:21:56;102210.34;;;19.87;42.24
68366;BME280;55283;51.466;5.478;2023-02-16T10:24:25;102201.13;;;19.83;42.73
68366;BME280;55283;51.466;5.478;2023-02-16T10:27:14;102205.94;;;19.90;42.95
68366;BME280;55283;51.466;5.478;2023-02-16T10:29:40;102205.09;;;19.89;42.97
68366;BME280;55283;51.466;5.478;2023-02-16T10:32:24;102188.34;;;19.86;42.90
68366;BME280;55283;51.466;5.478;2023-02-16T10:35:13;102209.50;;;19.98;42.92
68366;BME280;55283;51.466;5.478;2023-02-16T10:43:49;102202.25;;;20.04;42.87
68366;BME280;55283;51.466;5.478;2023-02-16T10:46:59;102211.84;;;20.06;42.94
68366;BME280;55283;51.466;5.478;2023-02-16T10:49:28;102211.88;;;19.96;43.24
68366;BME280;55283;51.466;5.478;2023-02-16T10:51:55;102208.28;;;20.02;43.11
68366;BME280;55283;51.466;5.478;2023-02-16T10:54:29;102226.25;;;20.08;42.95
68366;BME280;55283;51.466;5.478;2023-02-16T10:59:37;102220.25;;;20.06;43.39
68366;BME280;55283;51.466;5.478;2023-02-16T11:04:43;102217.47;;;20.03;43.14
68366;BME280;55283;51.466;5.478;2023-02-16T11:07:17;102231.50;;;19.99;43.24
68366;BME280;55283;51.466;5.478;2023-02-16T11:09:45;102241.44;;;20.07;43.19
68366;BME280;55283;51.466;5.478;2023-02-16T11:12:30;102231.44;;;20.06;43.27
68366;BME280;55283;51.466;5.478;2023-02-16T11:15:03;102227.88;;;20.02;43.38
68366;BME280;55283;51.466;5.478;2023-02-16T11:17:32;102237.47;;;20.01;43.59
68366;BME280;55283;51.466;5.478;2023-02-16T11:20:33;102217.06;;;20.01;43.56
68366;BME280;55283;51.466;5.478;2023-02-16T11:25:37;102199.53;;;19.93;44.02
68366;BME280;55283;51.466;5.478;2023-02-16T11:28:03;102202.69;;;19.95;43.89
68366;BME280;55283;51.466;5.478;2023-02-16T11:30:33;102193.09;;;19.93;44.07
68366;BME280;55283;51.466;5.478;2023-02-16T11:33:03;102196.69;;;20.00;43.94
68366;BME280;55283;51.466;5.478;2023-02-16T11:35:32;102200.69;;;20.03;44.03
68366;BME280;55283;51.466;5.478;2023-02-16T11:38:05;102185.91;;;20.02;44.29
68366;BME280;55283;51.466;5.478;2023-02-16T11:40:32;102181.06;;;20.06;44.39
68366;BME280;55283;51.466;5.478;2023-02-16T11:42:59;102189.84;;;20.08;44.27
68366;BME280;55283;51.466;5.478;2023-02-16T11:45:31;102181.47;;;20.05;44.30
68366;BME280;55283;51.466;5.478;2023-02-16T11:48:04;102176.25;;;20.10;44.22
68366;BME280;55283;51.466;5.478;2023-02-16T11:50:34;102166.22;;;20.17;44.29
68366;BME280;55283;51.466;5.478;2023-02-16T11:55:48;102163.41;;;20.20;44.34
68366;BME280;55283;51.466;5.478;2023-02-16T11:58:19;102158.22;;;20.22;44.45
68366;BME280;55283;51.466;5.478;2023-02-16T12:14:35;102164.69;;;20.01;45.05
68366;BME280;55283;51.466;5.478;2023-02-16T12:19:44;102154.69;;;20.00;45.08
68366;BME280;55283;51.466;5.478;2023-02-16T12:22:33;102152.66;;;20.11;44.74
68366;BME280;55283;51.466;5.478;2023-02-16T12:28:00;102145.78;;;20.23;45.13
68366;BME280;55283;51.466;5.478;2023-02-16T12:30:38;102128.19;;;20.23;44.71
68366;BME280;55283;51.466;5.478;2023-02-16T12:36:21;102123.69;;;20.36;45.14
68366;BME280;55283;51.466;5.478;2023-02-16T12:39:16;102106.91;;;20.36;45.07
68366;BME280;55283;51.466;5.478;2023-02-16T12:41:52;102117.31;;;20.43;44.96
68366;BME280;55283;51.466;5.478;2023-02-16T12:44:36;102101.69;;;20.42;45.17
68366;BME280;55283;51.466;5.478;2023-02-16T12:47:11;102095.69;;;20.43;45.06
68366;BME280;55283;51.466;5.478;2023-02-16T12:50:20;102086.50;;;20.43;44.93
68366;BME280;55283;51.466;5.478;2023-02-16T12:53:05;102091.28;;;20.42;45.11
68366;BME280;55283;51.466;5.478;2023-02-16T12:55:44;102093.66;;;20.47;45.26
68366;BME280;55283;51.466;5.478;2023-02-16T12:58:15;102092.84;;;20.47;45.03
68366;BME280;55283;51.466;5.478;2023-02-16T13:00:48;102084.06;;;20.48;45.05
68366;BME280;55283;51.466;5.478;2023-02-16T13:05:52;102084.41;;;20.50;44.82
68366;BME280;55283;51.466;5.478;2023-02-16T13:08:38;102082.75;;;20.60;44.58
68366;BME280;55283;51.466;5.478;2023-02-16T13:13:42;102075.06;;;20.68;44.76
68366;BME280;55283;51.466;5.478;2023-02-16T13:16:54;102071.47;;;20.67;44.65
68366;BME280;55283;51.466;5.478;2023-02-16T13:19:00;102058.69;;;20.66;44.94
68366;BME280;55283;51.466;5.478;2023-02-16T13:24:03;102059.91;;;20.62;43.80
68366;BME280;55283;51.466;5.478;2023-02-16T13:26:47;102053.09;;;20.63;43.75
68366;BME280;55283;51.466;5.478;2023-02-16T13:29:45;102047.88;;;20.65;44.27
68366;BME280;55283;51.466;5.478;2023-02-16T13:32:36;102044.69;;;20.66;43.86
68366;BME280;55283;51.466;5.478;2023-02-16T13:38:09;102025.88;;;20.67;43.83
68366;BME280;55283;51.466;5.478;2023-02-16T13:43:35;102026.59;;;20.74;43.77
68366;BME280;55283;51.466;5.478;2023-02-16T13:46:05;102018.59;;;20.73;43.92
68366;BME280;55283;51.466;5.478;2023-02-16T13:48:37;102017.75;;;20.76;43.75
68366;BME280;55283;51.466;5.478;2023-02-16T13:51:17;102026.16;;;20.76;43.77
68366;BME280;55283;51.466;5.478;2023-02-16T13:53:51;102018.59;;;20.73;43.63
68366;BME280;55283;51.466;5.478;2023-02-16T13:56:30;102000.66;;;20.67;43.77
68366;BME280;55283;51.466;5.478;2023-02-16T14:01:41;102009.41;;;20.72;43.92
68366;BME280;55283;51.466;5.478;2023-02-16T14:12:28;101989.09;;;20.61;43.66
68366;BME280;55283;51.466;5.478;2023-02-16T14:15:15;101985.47;;;20.64;43.67
68366;BME280;55283;51.466;5.478;2023-02-16T14:17:42;101976.22;;;20.67;43.76
68366;BME280;55283;51.466;5.478;2023-02-16T14:27:56;101980.16;;;20.73;43.58
68366;BME280;55283;51.466;5.478;2023-02-16T14:33:02;101967.38;;;20.72;44.00
68366;BME280;55283;51.466;5.478;2023-02-16T14:35:34;101969.00;;;20.70;44.05
68366;BME280;55283;51.466;5.478;2023-02-16T14:38:02;101971.78;;;20.70;44.22
68366;BME280;55283;51.466;5.478;2023-02-16T14:43:10;101968.19;;;20.69;43.92
68366;BME280;55283;51.466;5.478;2023-02-16T14:45:43;101965.00;;;20.67;44.21
68366;BME280;55283;51.466;5.478;2023-02-16T14:56:37;101951.41;;;20.69;43.88
68366;BME280;55283;51.466;5.478;2023-02-16T15:01:42;101942.66;;;20.64;44.14
68366;BME280;55283;51.466;5.478;2023-02-16T15:04:09;101942.69;;;20.60;44.06
68366;BME280;55283;51.466;5.478;2023-02-16T15:06:41;101947.88;;;20.62;44.17
68366;BME280;55283;51.466;5.478;2023-02-16T15:09:20;101944.66;;;20.63;44.16
68366;BME280;55283;51.466;5.478;2023-02-16T15:11:51;101939.06;;;20.63;44.02
68366;BME280;55283;51.466;5.478;2023-02-16T15:14:40;101942.19;;;20.69;44.08